Time;durP1;ratioP1;P1;durP2;ratioP2;P2;SDS_P1;SDS_P2;PMS_P1;PMS_P2;Temp;Humidity;BMP_temperature;BMP_pressure;BME280_temperature;BME280_humidity;BME280_pressure;Samples;Min_cycle;Max_cycle;Signal;HPM_P1;HPM_P2
2023/07/11 00:01:08;;;;;;;9.77;8.87;;;22.80;99.90;;;;;;5048839;28;20197;-54
2023/07/11 00:03:35;;;;;;;9.63;8.83;;;22.80;99.90;;;;;;5050827;28;20194;-54
2023/07/11 00:06:05;;;;;;;10.07;9.03;;;22.80;99.90;;;;;;5049558;28;20221;-54
2023/07/11 00:08:32;;;;;;;10.67;9.67;;;22.80;99.90;;;;;;5050378;28;20201;-54
2023/07/11 00:10:59;;;;;;;11.17;10.20;;;22.80;99.90;;;;;;5049703;28;20629;-54
2023/07/11 00:13:27;;;;;;;10.97;9.87;;;22.80;99.90;;;;;;5048701;28;20201;-54
2023/07/11 00:15:58;;;;;;;12.70;11.33;;;22.90;99.90;;;;;;5046513;28;20226;-54
2023/07/11 00:18:25;;;;;;;11.13;10.13;;;22.90;99.90;;;;;;5049502;28;20544;-54
2023/07/11 00:20:52;;;;;;;11.23;10.43;;;23.00;99.90;;;;;;5051747;28;20197;-54
2023/07/11 00:23:19;;;;;;;10.83;9.70;;;23.00;99.90;;;;;;5051365;28;20255;-54
2023/07/11 00:25:46;;;;;;;9.77;9.03;;;22.90;99.90;;;;;;5048973;28;20218;-54
2023/07/11 00:28:13;;;;;;;10.77;9.97;;;22.90;99.90;;;;;;5050333;28;20259;-54
2023/07/11 00:30:41;;;;;;;11.47;10.40;;;22.80;99.90;;;;;;5051422;28;20206;-54
2023/07/11 00:33:08;;;;;;;12.20;11.20;;;22.80;99.90;;;;;;5051452;28;20229;-54
2023/07/11 00:35:37;;;;;;;12.77;11.67;;;22.70;99.90;;;;;;5050527;28;20580;-54
2023/07/11 00:38:04;;;;;;;13.70;12.40;;;22.70;99.90;;;;;;5050299;28;20194;-54
2023/07/11 00:40:31;;;;;;;12.33;11.33;;;22.70;99.90;;;;;;5051504;28;20255;-54
2023/07/11 00:43:01;;;;;;;11.33;10.20;;;22.70;99.90;;;;;;5051048;28;20259;-54
2023/07/11 00:46:01;;;;;;;11.53;10.63;;;22.70;99.90;;;;;;5050517;28;20228;-54
2023/07/11 00:48:32;;;;;;;11.67;10.57;;;22.70;99.90;;;;;;5051139;28;20209;-54
2023/07/11 00:50:59;;;;;;;11.23;10.33;;;22.70;99.90;;;;;;5051030;28;20697;-54
2023/07/11 00:53:28;;;;;;;11.37;10.53;;;22.70;99.90;;;;;;5051778;28;20267;-54
2023/07/11 00:55:58;;;;;;;10.83;10.00;;;22.70;99.90;;;;;;5054548;28;20397;-54
2023/07/11 00:58:26;;;;;;;10.97;10.07;;;22.70;99.90;;;;;;5054722;28;20198;-54
2023/07/11 01:00:53;;;;;;;11.87;10.93;;;22.70;99.90;;;;;;5053109;28;20205;-54
2023/07/11 01:03:23;;;;;;;10.67;9.90;;;22.60;99.90;;;;;;5051213;28;20202;-53
2023/07/11 01:05:55;;;;;;;10.93;9.97;;;22.60;99.90;;;;;;5044776;28;20245;-54
2023/07/11 01:08:22;;;;;;;11.37;10.33;;;22.60;99.90;;;;;;5054309;28;20565;-54
2023/07/11 01:10:49;;;;;;;10.50;9.67;;;22.60;99.90;;;;;;5050528;28;20336;-54
2023/07/11 01:13:16;;;;;;;11.20;10.27;;;22.60;99.90;;;;;;5054235;28;20202;-53
2023/07/11 01:15:43;;;;;;;12.60;11.30;;;22.50;99.90;;;;;;5052610;28;20230;-54
2023/07/11 01:18:10;;;;;;;11.00;10.00;;;22.50;99.90;;;;;;5051563;28;20280;-54
2023/07/11 01:20:37;;;;;;;11.50;10.50;;;22.50;99.90;;;;;;5053037;28;20198;-54
2023/07/11 01:23:06;;;;;;;11.90;10.63;;;22.50;99.90;;;;;;5053939;28;20205;-54
2023/07/11 01:25:33;;;;;;;11.80;10.63;;;22.50;99.90;;;;;;5054280;28;20217;-54
2023/07/11 01:28:00;;;;;;;11.00;10.07;;;22.50;99.90;;;;;;5053213;28;20732;-54
2023/07/11 01:30:27;;;;;;;11.23;10.10;;;22.50;99.90;;;;;;5051541;28;20198;-54
2023/07/11 01:32:54;;;;;;;11.27;10.17;;;22.50;99.90;;;;;;5052350;28;20279;-54
2023/07/11 01:35:21;;;;;;;11.77;10.53;;;22.40;99.90;;;;;;5046075;28;20242;-53
2023/07/11 01:37:48;;;;;;;11.67;10.77;;;22.40;99.90;;;;;;5051766;28;20194;-54
2023/07/11 01:40:17;;;;;;;10.50;9.73;;;22.30;99.90;;;;;;5063531;28;20748;-53
2023/07/11 01:42:44;;;;;;;12.00;10.80;;;22.30;99.90;;;;;;5053467;28;20330;-54
2023/07/11 01:45:12;;;;;;;12.30;11.17;;;22.30;99.90;;;;;;5054278;28;20271;-54
2023/07/11 01:47:39;;;;;;;12.40;11.30;;;22.20;99.90;;;;;;5053116;28;20206;-54
2023/07/11 01:50:07;;;;;;;11.40;10.33;;;22.20;99.90;;;;;;5054158;28;20189;-54
2023/07/11 01:52:37;;;;;;;10.70;9.87;;;22.20;99.90;;;;;;5053008;28;20239;-54
2023/07/11 01:55:04;;;;;;;11.93;10.77;;;22.10;99.90;;;;;;5052798;28;20758;-54
2023/07/11 01:57:33;;;;;;;11.87;10.87;;;22.10;99.90;;;;;;5053703;28;20221;-54
2023/07/11 02:00:00;;;;;;;9.80;9.10;;;22.00;99.90;;;;;;5051293;28;20259;-53
2023/07/11 02:02:27;;;;;;;12.37;10.97;;;22.00;99.90;;;;;;5052026;28;20209;-54
2023/07/11 02:04:54;;;;;;;11.90;10.97;;;22.00;99.90;;;;;;5053152;28;20206;-54
2023/07/11 02:07:21;;;;;;;11.27;10.47;;;22.00;99.90;;;;;;5052200;28;20256;-54
2023/07/11 02:09:48;;;;;;;12.37;10.97;;;22.10;99.90;;;;;;5053348;28;20202;-53
2023/07/11 02:12:15;;;;;;;12.27;11.27;;;22.10;99.90;;;;;;5052489;28;20194;-54
2023/07/11 02:14:43;;;;;;;11.73;10.63;;;22.20;99.90;;;;;;5051247;28;20720;-54
2023/07/11 02:17:14;;;;;;;13.37;11.87;;;22.20;99.90;;;;;;5047584;28;20652;-54
2023/07/11 02:19:42;;;;;;;12.73;11.10;;;22.10;99.90;;;;;;5052467;28;20644;-54
2023/07/11 02:22:09;;;;;;;13.37;12.10;;;22.10;99.90;;;;;;5045928;28;20671;-54
2023/07/11 02:24:36;;;;;;;12.77;11.53;;;22.00;99.90;;;;;;5052866;28;20582;-54
2023/07/11 02:27:04;;;;;;;11.03;10.23;;;22.00;99.90;;;;;;5053024;28;20249;-54
2023/07/11 02:29:31;;;;;;;18.60;11.53;;;22.00;99.90;;;;;;5051640;28;20210;-54
2023/07/11 02:31:59;;;;;;;10.63;9.83;;;22.00;99.90;;;;;;5051132;28;20251;-53
2023/07/11 02:34:26;;;;;;;15.20;11.40;;;21.80;99.90;;;;;;5052667;28;20267;-54
2023/07/11 02:36:53;;;;;;;12.00;10.90;;;21.80;99.90;;;;;;5052749;28;20788;-54
2023/07/11 02:39:20;;;;;;;11.17;10.27;;;21.70;99.90;;;;;;5053288;28;20201;-54
2023/07/11 02:41:47;;;;;;;11.70;10.80;;;21.70;99.90;;;;;;5051241;28;20198;-54
2023/07/11 02:44:14;;;;;;;20.57;11.93;;;21.60;99.90;;;;;;5051830;28;20681;-54
2023/07/11 02:46:41;;;;;;;12.10;11.10;;;21.60;99.90;;;;;;5051725;28;20287;-54
2023/07/11 02:49:11;;;;;;;13.30;12.17;;;21.60;99.90;;;;;;5051773;28;20255;-54
2023/07/11 02:51:39;;;;;;;12.67;11.50;;;21.60;99.90;;;;;;5052849;28;20197;-53
2023/07/11 02:54:06;;;;;;;12.90;11.77;;;21.60;99.90;;;;;;5051528;28;20225;-54
2023/07/11 02:56:34;;;;;;;11.37;10.40;;;21.60;99.90;;;;;;5050500;28;20249;-54
2023/07/11 02:59:01;;;;;;;14.37;10.73;;;21.60;99.90;;;;;;5051069;28;20283;-54
2023/07/11 03:01:31;;;;;;;12.33;11.23;;;21.50;99.90;;;;;;5052418;28;20205;-54
2023/07/11 03:03:58;;;;;;;12.40;11.40;;;21.50;99.90;;;;;;5049795;28;20202;-53
2023/07/11 03:06:26;;;;;;;12.70;11.50;;;21.50;99.90;;;;;;5051341;28;20730;-54
2023/07/11 03:08:53;;;;;;;12.37;11.20;;;21.50;99.90;;;;;;5050745;28;20233;-54
2023/07/11 03:11:20;;;;;;;13.63;10.63;;;21.50;99.90;;;;;;5050140;28;20263;-53
2023/07/11 03:13:47;;;;;;;11.20;10.20;;;21.50;99.90;;;;;;5046932;28;20659;-54
2023/07/11 03:16:14;;;;;;;14.10;12.77;;;21.50;99.90;;;;;;5051870;28;20225;-54
2023/07/11 03:18:41;;;;;;;12.17;10.77;;;21.40;99.90;;;;;;5051119;28;20262;-54
2023/07/11 03:21:08;;;;;;;14.23;12.03;;;21.40;99.90;;;;;;5050890;28;20745;-54
2023/07/11 03:23:36;;;;;;;11.73;10.73;;;21.40;99.90;;;;;;5051545;28;20210;-54
2023/07/11 03:26:03;;;;;;;11.23;10.13;;;21.40;99.90;;;;;;5051032;28;20275;-54
2023/07/11 03:28:30;;;;;;;12.07;11.27;;;21.40;99.90;;;;;;5046789;28;20891;-54
2023/07/11 03:30:57;;;;;;;13.27;11.97;;;21.40;99.90;;;;;;5050042;28;20672;-53
2023/07/11 03:33:24;;;;;;;11.80;10.90;;;21.40;99.90;;;;;;5050497;28;20210;-53
2023/07/11 03:35:53;;;;;;;12.40;11.37;;;21.30;99.90;;;;;;5045772;28;20226;-54
2023/07/11 03:38:20;;;;;;;11.97;11.03;;;21.30;99.90;;;;;;5052065;28;20252;-53
2023/07/11 03:40:49;;;;;;;11.67;10.50;;;21.20;99.90;;;;;;5045036;28;20198;-54
2023/07/11 03:43:15;;;;;;;12.40;11.27;;;21.20;99.90;;;;;;5033910;28;20245;-54
2023/07/11 03:45:46;;;;;;;12.93;11.73;;;21.20;99.90;;;;;;5040838;28;20256;-54
2023/07/11 03:48:14;;;;;;;11.13;10.10;;;21.20;99.90;;;;;;5046528;28;20190;-53
2023/07/11 03:50:41;;;;;;;12.93;11.77;;;21.20;99.90;;;;;;5048168;28;20205;-53
2023/07/11 03:53:08;;;;;;;12.13;11.13;;;21.20;99.90;;;;;;5031173;28;20573;-53
2023/07/11 03:55:35;;;;;;;12.57;11.43;;;21.20;99.90;;;;;;5049362;28;20285;-53
2023/07/11 03:58:03;;;;;;;11.50;10.40;;;21.30;99.90;;;;;;5049652;28;20277;-53
2023/07/11 04:00:30;;;;;;;14.53;13.20;;;21.30;99.90;;;;;;5045873;28;20672;-53
2023/07/11 04:02:57;;;;;;;15.80;12.37;;;21.40;99.90;;;;;;5039236;28;20733;-54
2023/07/11 04:05:24;;;;;;;15.57;12.20;;;21.50;99.90;;;;;;5045677;28;20259;-53
2023/07/11 04:07:51;;;;;;;12.43;11.03;;;21.60;99.90;;;;;;5049403;28;20244;-54
2023/07/11 04:10:18;;;;;;;12.40;11.40;;;21.60;99.90;;;;;;5049374;28;20198;-54
2023/07/11 04:12:45;;;;;;;12.07;11.07;;;21.60;99.90;;;;;;5048994;28;20198;-53
2023/07/11 04:15:14;;;;;;;12.77;11.47;;;21.60;99.90;;;;;;5042711;28;20217;-53
2023/07/11 04:17:41;;;;;;;14.57;12.37;;;21.70;99.90;;;;;;5042697;28;20645;-53
2023/07/11 04:20:10;;;;;;;13.67;12.37;;;21.80;99.90;;;;;;5039779;28;20267;-53
2023/07/11 04:22:37;;;;;;;12.33;11.20;;;21.80;99.90;;;;;;5039159;28;20199;-53
2023/07/11 04:25:05;;;;;;;13.07;11.53;;;21.80;99.90;;;;;;5050648;28;20745;-53
2023/07/11 04:27:35;;;;;;;13.10;12.00;;;21.80;99.90;;;;;;5053116;28;20297;-53
2023/07/11 04:30:02;;;;;;;12.30;11.10;;;21.90;99.90;;;;;;5053525;28;20198;-53
2023/07/11 04:32:31;;;;;;;14.83;12.73;;;22.00;99.90;;;;;;5047254;28;20253;-53
2023/07/11 04:34:57;;;;;;;12.07;10.97;;;22.00;99.90;;;;;;5043446;28;20252;-53
2023/07/11 04:37:24;;;;;;;11.90;11.00;;;22.00;99.90;;;;;;5052558;28;20225;-53
2023/07/11 04:39:51;;;;;;;13.73;12.40;;;22.00;99.90;;;;;;5045003;28;20252;-54
2023/07/11 04:42:18;;;;;;;13.50;12.20;;;22.00;99.90;;;;;;5036525;28;20248;-53
2023/07/11 04:44:45;;;;;;;11.43;10.53;;;22.10;99.90;;;;;;5043221;28;20199;-53
2023/07/11 04:47:12;;;;;;;14.30;13.00;;;22.10;99.90;;;;;;5048764;28;20221;-53
2023/07/11 04:49:40;;;;;;;12.63;11.53;;;22.20;99.90;;;;;;5042769;28;20202;-53
2023/07/11 04:52:07;;;;;;;11.30;10.33;;;22.20;99.90;;;;;;5041235;28;20295;-53
2023/07/11 04:54:35;;;;;;;12.37;11.17;;;22.30;99.90;;;;;;5048570;28;20199;-53
2023/07/11 04:57:03;;;;;;;13.77;12.53;;;22.40;99.90;;;;;;5051822;28;20225;-53
2023/07/11 04:59:30;;;;;;;12.77;10.80;;;22.60;99.90;;;;;;5039353;28;20202;-53
2023/07/11 05:01:57;;;;;;;12.43;11.33;;;22.70;99.90;;;;;;5040534;28;20202;-53
2023/07/11 05:04:24;;;;;;;14.90;12.70;;;22.80;99.90;;;;;;5039446;28;20248;-53
2023/07/11 05:06:52;;;;;;;11.67;10.43;;;23.00;99.90;;;;;;5047142;28;20249;-53
2023/07/11 05:09:19;;;;;;;11.23;10.20;;;23.20;99.90;;;;;;5046470;28;20710;-53
2023/07/11 05:11:46;;;;;;;11.90;11.00;;;23.30;99.90;;;;;;5043669;28;20287;-53
2023/07/11 05:14:13;;;;;;;12.07;10.90;;;23.50;99.90;;;;;;5049350;28;20197;-54
2023/07/11 05:16:40;;;;;;;15.30;10.77;;;23.70;99.90;;;;;;5045130;28;20255;-53
2023/07/11 05:19:07;;;;;;;12.47;11.17;;;23.90;99.90;;;;;;5038216;28;20248;-53
2023/07/11 05:21:34;;;;;;;12.40;11.20;;;24.40;99.90;;;;;;5042635;28;20260;-54
2023/07/11 05:24:03;;;;;;;14.53;11.63;;;25.00;99.90;;;;;;5048625;28;20310;-53
2023/07/11 05:26:30;;;;;;;12.40;11.27;;;25.70;99.90;;;;;;5043139;28;20260;-53
2023/07/11 05:28:57;;;;;;;11.07;10.07;;;26.40;99.90;;;;;;5041880;28;20588;-53
2023/07/11 05:31:24;;;;;;;13.13;10.27;;;27.00;99.90;;;;;;5040877;28;20291;-53
2023/07/11 05:33:53;;;;;;;12.60;11.20;;;27.60;99.90;;;;;;5037538;28;20252;-54
2023/07/11 05:36:31;;;;;;;11.10;10.05;;;28.30;99.90;;;;;;5043835;28;20222;-54
2023/07/11 05:38:58;;;;;;;11.82;10.63;;;28.70;99.90;;;;;;5044284;28;20216;-53
2023/07/11 05:41:27;;;;;;;10.90;9.77;;;29.40;99.90;;;;;;5037328;28;20680;-54
2023/07/11 05:43:55;;;;;;;12.45;10.35;;;29.80;99.90;;;;;;5044196;28;20194;-53
2023/07/11 05:46:22;;;;;;;10.45;9.50;;;30.10;99.90;;;;;;5038451;28;20211;-54
2023/07/11 05:48:49;;;;;;;12.02;10.07;;;30.40;99.90;;;;;;5047798;28;20202;-53
2023/07/11 05:51:18;;;;;;;9.10;8.48;;;30.70;99.90;;;;;;5050056;28;20201;-53
2023/07/11 05:53:45;;;;;;;10.35;9.40;;;30.90;99.90;;;;;;5052678;28;20205;-54
2023/07/11 05:56:12;;;;;;;10.57;9.68;;;31.10;99.90;;;;;;5053781;28;20256;-53
2023/07/11 05:58:43;;;;;;;11.05;10.10;;;31.30;99.90;;;;;;5052884;28;20903;-54
2023/07/11 06:01:11;;;;;;;10.45;9.25;;;31.40;99.90;;;;;;5044478;28;20536;-57
2023/07/11 06:03:40;;;;;;;9.77;8.98;;;31.30;99.90;;;;;;5052357;28;20217;-54
2023/07/11 06:06:10;;;;;;;9.98;9.10;;;31.30;99.90;;;;;;5052119;28;20214;-53
2023/07/11 06:08:37;;;;;;;9.10;8.38;;;31.40;99.90;;;;;;5049720;28;20198;-54
2023/07/11 06:11:06;;;;;;;10.57;9.35;;;31.20;99.90;;;;;;5053831;28;20202;-54
2023/07/11 06:13:34;;;;;;;10.65;9.65;;;31.50;99.90;;;;;;5053597;28;20206;-53
2023/07/11 06:16:05;;;;;;;10.77;9.77;;;31.80;99.90;;;;;;5053573;28;20284;-53
2023/07/11 06:18:36;;;;;;;9.48;8.77;;;32.10;99.90;;;;;;5048670;28;20656;-54
2023/07/11 06:21:03;;;;;;;9.52;8.65;;;32.30;99.90;;;;;;5051268;28;20226;-55
2023/07/11 06:23:30;;;;;;;8.80;8.10;;;32.50;99.90;;;;;;5051490;28;20224;-54
2023/07/11 06:25:57;;;;;;;9.60;8.75;;;32.70;99.90;;;;;;5052733;28;20218;-53
2023/07/11 06:28:24;;;;;;;10.80;9.75;;;32.90;99.90;;;;;;5053367;28;20201;-54
2023/07/11 06:30:51;;;;;;;12.05;9.00;;;33.20;99.90;;;;;;5052301;28;20197;-53
2023/07/11 06:33:19;;;;;;;9.23;8.52;;;33.30;99.90;;;;;;5052863;28;20201;-52
2023/07/11 06:35:49;;;;;;;9.52;8.07;;;33.30;99.90;;;;;;5050278;28;20213;-54
2023/07/11 06:38:16;;;;;;;9.90;9.05;;;32.90;99.90;;;;;;5046851;28;20197;-54
2023/07/11 06:40:49;;;;;;;9.45;8.65;;;33.20;99.90;;;;;;5047000;28;20272;-54
2023/07/11 06:43:16;;;;;;;9.65;8.80;;;33.70;99.90;;;;;;5049683;28;20660;-55
2023/07/11 06:45:44;;;;;;;9.93;8.98;;;34.10;99.90;;;;;;5044904;28;20723;-54
2023/07/11 06:48:11;;;;;;;9.32;7.82;;;34.00;99.90;;;;;;5044082;28;20660;-53
2023/07/11 06:50:40;;;;;;;10.13;9.10;;;33.60;99.90;;;;;;5035662;28;20191;-54
2023/07/11 06:53:07;;;;;;;16.13;9.35;;;33.80;99.90;;;;;;5044166;28;20248;-54
2023/07/11 06:55:34;;;;;;;9.45;8.75;;;34.40;99.90;;;;;;5046061;28;20794;-53
2023/07/11 06:58:01;;;;;;;9.93;9.13;;;34.70;99.90;;;;;;5033538;28;20198;-54
2023/07/11 07:00:27;;;;;;;10.38;9.23;;;35.10;99.90;;;;;;5034380;28;20678;-61
2023/07/11 07:02:54;;;;;;;9.88;9.07;;;35.30;99.90;;;;;;5036751;28;20195;-57
2023/07/11 07:05:21;;;;;;;9.57;8.68;;;35.20;99.90;;;;;;5047184;28;20252;-63
2023/07/11 07:07:50;;;;;;;10.88;8.65;;;35.50;99.90;;;;;;5041627;22;20234;-69
2023/07/11 07:10:17;;;;;;;13.68;9.10;;;35.90;99.90;;;;;;5012121;28;20226;-61
2023/07/11 07:12:44;;;;;;;10.20;9.05;;;36.20;99.00;;;;;;5012444;28;20553;-62
2023/07/11 07:15:11;;;;;;;11.48;9.23;;;36.20;99.90;;;;;;5006836;28;20203;-61
2023/07/11 07:17:41;;;;;;;10.00;9.13;;;36.20;99.70;;;;;;5019529;28;20223;-61
2023/07/11 07:20:10;;;;;;;10.05;9.15;;;36.50;99.90;;;;;;5029624;28;20203;-60
2023/07/11 07:22:37;;;;;;;8.45;7.68;;;36.60;97.50;;;;;;5019496;28;20205;-60
2023/07/11 07:25:06;;;;;;;10.15;9.27;;;36.50;98.80;;;;;;5017314;28;20199;-62
2023/07/11 07:27:44;;;;;;;9.15;8.35;;;36.40;98.70;;;;;;5011762;28;20740;-61
2023/07/11 07:30:12;;;;;;;9.25;8.50;;;36.70;98.20;;;;;;5019009;28;20199;-61
2023/07/11 07:32:41;;;;;;;10.07;8.32;;;36.60;98.90;;;;;;5015193;28;20199;-61
2023/07/11 07:35:08;;;;;;;8.23;7.72;;;36.70;98.50;;;;;;5019128;28;20203;-61
2023/07/11 07:37:37;;;;;;;8.50;7.68;;;36.90;98.50;;;;;;5013564;28;20269;-61
2023/07/11 07:40:07;;;;;;;9.70;8.35;;;36.80;98.90;;;;;;5020022;28;20196;-61
2023/07/11 07:42:37;;;;;;;9.30;8.57;;;37.20;98.00;;;;;;5010466;28;20203;-61
2023/07/11 07:45:05;;;;;;;9.57;8.77;;;37.10;96.70;;;;;;5017087;28;20203;-60
2023/07/11 07:47:35;;;;;;;10.27;9.30;;;37.50;96.50;;;;;;5012214;28;20225;-61
2023/07/11 07:50:02;;;;;;;9.98;9.05;;;37.10;96.40;;;;;;5011595;28;20705;-60
2023/07/11 07:52:29;;;;;;;9.10;8.38;;;37.60;96.10;;;;;;5010367;28;20199;-62
2023/07/11 07:54:56;;;;;;;10.52;9.32;;;37.60;95.90;;;;;;5011257;28;20296;-61
2023/07/11 07:57:25;;;;;;;10.52;9.45;;;38.00;97.80;;;;;;5021969;28;20272;-61
2023/07/11 07:59:52;;;;;;;9.63;8.82;;;38.00;94.10;;;;;;5022781;28;20237;-61
2023/07/11 08:02:19;;;;;;;9.55;8.75;;;37.90;93.80;;;;;;5031476;28;20226;-61
2023/07/11 08:04:47;;;;;;;10.45;9.48;;;38.10;94.10;;;;;;5022010;28;20262;-60
2023/07/11 08:07:15;;;;;;;9.55;8.52;;;38.10;95.80;;;;;;5019269;28;20810;-60
2023/07/11 08:09:42;;;;;;;9.23;8.52;;;38.40;95.60;;;;;;5009472;28;20207;-61
2023/07/11 08:12:10;;;;;;;9.80;8.80;;;39.10;93.30;;;;;;5009945;28;20203;-61
2023/07/11 08:14:40;;;;;;;9.63;8.77;;;39.60;91.60;;;;;;5027105;28;20195;-61
2023/07/11 08:17:08;;;;;;;10.20;9.40;;;39.30;91.70;;;;;;5023451;28;20308;-62
2023/07/11 08:19:35;;;;;;;13.95;9.63;;;38.20;91.50;;;;;;5022915;28;20214;-60
2023/07/11 08:22:02;;;;;;;11.10;10.30;;;38.10;92.70;;;;;;5031044;28;20202;-61
2023/07/11 08:24:29;;;;;;;9.70;8.50;;;38.50;92.20;;;;;;5022776;28;20620;-61
2023/07/11 08:26:56;;;;;;;10.20;9.13;;;38.20;95.00;;;;;;5011372;28;20255;-61
2023/07/11 08:29:23;;;;;;;13.52;9.52;;;38.20;96.50;;;;;;5018971;28;20206;-61
2023/07/11 08:31:52;;;;;;;9.10;8.32;;;38.40;94.60;;;;;;5019831;28;20242;-62
2023/07/11 08:34:19;;;;;;;12.27;10.02;;;38.70;93.70;;;;;;5030616;28;20735;-62
2023/07/11 08:36:47;;;;;;;11.75;9.85;;;38.70;92.90;;;;;;5030673;28;20276;-62
2023/07/11 08:39:14;;;;;;;11.95;10.82;;;38.60;92.80;;;;;;5015022;28;20205;-61
2023/07/11 08:41:45;;;;;;;9.90;9.00;;;38.80;92.80;;;;;;5019010;28;20217;-61
2023/07/11 08:44:15;;;;;;;10.80;9.93;;;38.80;94.00;;;;;;5030679;28;20210;-62
2023/07/11 08:46:49;;;;;;;10.27;9.27;;;39.10;93.40;;;;;;5030718;28;20308;-62
2023/07/11 08:49:26;;;;;;;10.55;9.65;;;38.80;92.10;;;;;;5030660;28;20206;-62
2023/07/11 08:51:57;;;;;;;11.52;8.90;;;38.60;92.20;;;;;;5017775;28;20203;-61
2023/07/11 08:54:29;;;;;;;12.23;9.60;;;39.00;91.20;;;;;;5010715;28;20202;-61
2023/07/11 08:56:59;;;;;;;10.50;9.55;;;38.80;89.80;;;;;;5010729;28;20389;-62
2023/07/11 08:59:36;;;;;;;11.00;9.93;;;39.00;91.60;;;;;;5010821;28;20207;-61
2023/07/11 09:02:16;;;;;;;16.10;10.35;;;39.00;93.50;;;;;;5008196;28;20198;-62
2023/07/11 09:04:48;;;;;;;10.20;9.18;;;39.20;91.70;;;;;;5005410;28;20615;-61
2023/07/11 09:07:26;;;;;;;11.80;9.15;;;38.80;92.80;;;;;;5010438;28;20219;-62
2023/07/11 09:09:53;;;;;;;10.65;9.63;;;39.00;91.20;;;;;;5028557;28;20259;-61
2023/07/11 09:12:26;;;;;;;10.18;9.30;;;39.50;90.60;;;;;;5020233;28;20199;-61
2023/07/11 09:15:05;;;;;;;10.20;9.27;;;39.40;90.90;;;;;;5025925;28;20202;-61
2023/07/11 09:17:43;;;;;;;10.65;9.25;;;39.60;93.10;;;;;;5023698;28;20230;-61
2023/07/11 09:20:24;;;;;;;10.93;10.00;;;39.80;91.90;;;;;;5012001;28;20614;-61
2023/07/11 09:23:06;;;;;;;10.38;9.65;;;40.00;92.30;;;;;;5025798;28;20202;-62
2023/07/11 09:25:36;;;;;;;9.77;9.07;;;40.00;94.70;;;;;;5020157;28;20575;-61
2023/07/11 09:28:07;;;;;;;9.77;9.18;;;39.80;93.50;;;;;;5001741;28;20240;-61
2023/07/11 09:30:41;;;;;;;10.65;9.63;;;39.80;93.10;;;;;;5004794;28;20539;-60
2023/07/11 09:33:15;;;;;;;11.80;11.00;;;40.00;91.70;;;;;;4993754;28;20200;-61
2023/07/11 09:35:45;;;;;;;12.07;10.90;;;38.40;93.70;;;;;;5008567;28;20208;-61
2023/07/11 09:38:22;;;;;;;11.77;10.50;;;37.30;94.80;;;;;;4993664;28;20296;-61
2023/07/11 09:40:54;;;;;;;11.85;10.85;;;37.00;96.20;;;;;;4993750;28;20192;-60
2023/07/11 09:43:21;;;;;;;12.73;11.55;;;36.90;96.00;;;;;;5007369;28;20203;-60
2023/07/11 09:45:48;;;;;;;11.73;10.73;;;36.30;96.50;;;;;;5011971;28;20199;-62
2023/07/11 09:48:18;;;;;;;11.65;10.57;;;36.90;96.30;;;;;;5010935;28;20291;-60
2023/07/11 09:50:58;;;;;;;12.45;11.30;;;37.10;96.40;;;;;;5013760;28;20249;-61
2023/07/11 09:53:26;;;;;;;12.50;11.57;;;37.10;96.70;;;;;;5033336;28;20707;-61
2023/07/11 09:55:59;;;;;;;12.52;11.45;;;36.80;98.40;;;;;;5026712;28;20229;-61
2023/07/11 09:58:29;;;;;;;15.52;10.73;;;36.50;96.90;;;;;;5025457;28;20215;-60
2023/07/11 10:01:01;;;;;;;12.65;11.43;;;37.00;97.80;;;;;;5023578;28;20203;-61
2023/07/11 10:03:30;;;;;;;13.60;12.38;;;37.50;96.20;;;;;;5020945;28;20207;-61
2023/07/11 10:05:58;;;;;;;11.50;10.63;;;37.30;97.30;;;;;;5032121;28;20198;-62
2023/07/11 10:08:30;;;;;;;11.57;10.68;;;37.70;95.60;;;;;;5030478;28;20207;-63
2023/07/11 10:11:03;;;;;;;12.00;11.05;;;37.80;95.80;;;;;;5022295;28;20288;-62
2023/07/11 10:13:30;;;;;;;12.68;11.65;;;38.10;94.90;;;;;;5033097;28;20548;-61
2023/07/11 10:15:59;;;;;;;11.40;10.50;;;38.20;94.30;;;;;;5033142;28;20206;-60
2023/07/11 10:18:28;;;;;;;11.45;10.35;;;38.40;94.70;;;;;;5022789;28;20297;-61
2023/07/11 10:20:59;;;;;;;10.90;10.02;;;38.40;94.90;;;;;;5012324;28;20829;-60
2023/07/11 10:23:27;;;;;;;11.43;10.35;;;38.40;94.10;;;;;;5024313;28;20194;-61
2023/07/11 10:25:55;;;;;;;11.68;10.68;;;38.70;93.20;;;;;;5027347;28;20213;-61
2023/07/11 10:28:28;;;;;;;11.70;10.85;;;38.60;93.30;;;;;;5021233;28;20277;-60
2023/07/11 10:30:58;;;;;;;13.02;11.57;;;37.90;94.50;;;;;;5002266;28;20344;-61
2023/07/11 10:33:29;;;;;;;11.25;10.35;;;38.60;94.20;;;;;;4993685;28;20200;-61
2023/07/11 10:36:19;;;;;;;10.82;10.13;;;39.00;92.30;;;;;;5002595;28;20204;-61
2023/07/11 10:38:52;;;;;;;11.02;10.23;;;39.10;93.80;;;;;;4997603;28;20220;-61
2023/07/11 10:41:24;;;;;;;10.63;9.90;;;39.20;92.80;;;;;;4992709;28;20566;-60
2023/07/11 10:43:52;;;;;;;12.10;11.02;;;39.50;92.40;;;;;;4992433;28;20736;-60
2023/07/11 10:46:30;;;;;;;11.20;10.40;;;39.10;92.50;;;;;;4995147;28;20262;-61
2023/07/11 10:49:06;;;;;;;12.73;10.93;;;38.90;91.10;;;;;;4992916;28;20273;-61
2023/07/11 10:51:37;;;;;;;10.82;9.90;;;38.90;93.80;;;;;;5001924;28;20207;-60
2023/07/11 10:54:10;;;;;;;9.48;8.98;;;39.10;92.20;;;;;;5009302;28;20195;-64
2023/07/11 10:56:41;;;;;;;9.40;8.52;;;38.70;92.50;;;;;;4992274;28;20609;-64
2023/07/11 10:59:12;;;;;;;13.73;10.20;;;38.90;90.60;;;;;;4992370;28;20227;-67
2023/07/11 11:01:47;;;;;;;8.95;8.35;;;38.40;92.90;;;;;;4992290;28;20199;-67
2023/07/11 11:04:33;;;;;;;9.38;8.57;;;38.00;92.10;;;;;;4992320;28;20199;-66
2023/07/11 11:07:07;;;;;;;8.20;7.68;;;37.70;91.50;;;;;;5003423;28;20774;-66
2023/07/11 11:09:43;;;;;;;9.88;9.07;;;37.40;91.50;;;;;;5010021;28;20341;-68
2023/07/11 11:12:24;;;;;;;9.20;8.23;;;37.20;90.80;;;;;;5001427;28;20203;-66
2023/07/11 11:15:13;;;;;;;10.20;8.80;;;37.00;94.20;;;;;;5000407;28;20259;-66
2023/07/11 11:17:55;;;;;;;8.95;8.10;;;36.90;93.20;;;;;;5008255;28;20234;-69
2023/07/11 11:20:28;;;;;;;9.50;7.70;;;36.70;92.30;;;;;;5019527;28;20202;-70
2023/07/11 11:23:07;;;;;;;9.30;8.50;;;36.10;91.70;;;;;;5031927;28;20212;-68
2023/07/11 11:25:38;;;;;;;8.32;7.53;;;35.40;93.20;;;;;;5013694;28;20210;-66
2023/07/11 11:28:17;;;;;;;9.50;7.68;;;34.90;92.80;;;;;;5012121;28;20223;-73
2023/07/11 11:30:51;;;;;;;9.18;8.48;;;34.80;94.60;;;;;;5016076;28;20652;-72
2023/07/11 11:33:32;;;;;;;9.13;8.43;;;34.50;95.10;;;;;;5024603;28;20208;-72
2023/07/11 11:36:08;;;;;;;8.45;7.85;;;34.50;95.20;;;;;;5031204;28;20675;-70
2023/07/11 11:38:55;;;;;;;7.97;7.38;;;34.40;94.40;;;;;;5031613;28;20308;-69
2023/07/11 11:41:34;;;;;;;8.75;8.20;;;34.60;93.20;;;;;;5017677;28;20215;-69
2023/07/11 11:44:03;;;;;;;7.95;7.18;;;34.70;94.50;;;;;;4992290;28;20208;-70
2023/07/11 11:46:30;;;;;;;8.27;7.50;;;34.20;92.70;;;;;;5016832;28;20223;-70
2023/07/11 11:49:00;;;;;;;8.65;7.70;;;34.50;94.60;;;;;;5030338;28;20262;-69
2023/07/11 11:51:28;;;;;;;8.70;7.20;;;34.60;90.90;;;;;;5022230;28;20203;-70
2023/07/11 11:54:15;;;;;;;6.55;6.05;;;34.20;92.80;;;;;;5011063;28;20848;-70
2023/07/11 11:56:45;;;;;;;8.63;7.88;;;34.00;93.50;;;;;;5011544;28;20689;-70
2023/07/11 11:59:18;;;;;;;8.30;7.68;;;34.00;92.70;;;;;;4998625;28;20294;-69
2023/07/11 12:01:59;;;;;;;7.50;6.90;;;33.90;94.30;;;;;;4999620;28;20287;-69
2023/07/11 12:04:43;;;;;;;7.78;7.20;;;33.90;93.80;;;;;;4991915;28;20278;-70
2023/07/11 12:07:24;;;;;;;8.18;7.47;;;33.80;93.70;;;;;;4991458;28;20235;-68
2023/07/11 12:10:13;;;;;;;9.63;7.43;;;34.00;93.00;;;;;;4991451;28;20282;-61
2023/07/11 12:13:19;;;;;;;9.68;6.97;;;34.20;94.40;;;;;;5001912;28;20188;-63
2023/07/11 12:15:52;;;;;;;6.70;6.05;;;34.30;93.40;;;;;;5001495;28;20202;-62
2023/07/11 12:18:44;;;;;;;6.60;6.10;;;34.40;93.80;;;;;;5007338;28;20246;-61
2023/07/11 12:21:25;;;;;;;7.88;7.18;;;34.40;93.90;;;;;;5007889;28;20203;-62
2023/07/11 12:23:54;;;;;;;6.93;6.32;;;34.40;94.60;;;;;;5000941;28;20199;-63
2023/07/11 12:26:24;;;;;;;7.35;6.85;;;34.40;93.60;;;;;;5007376;28;20748;-61
2023/07/11 12:28:52;;;;;;;11.63;7.18;;;34.20;93.90;;;;;;4999791;28;20616;-63
2023/07/11 12:31:22;;;;;;;8.00;6.05;;;34.00;92.80;;;;;;5002044;28;20196;-64
2023/07/11 12:34:00;;;;;;;8.68;6.93;;;33.90;94.00;;;;;;5009121;28;20209;-62
2023/07/11 12:36:50;;;;;;;9.20;6.85;;;33.80;93.10;;;;;;5020638;28;20249;-62
2023/07/11 12:39:30;;;;;;;7.57;6.88;;;33.60;94.60;;;;;;4991878;28;20566;-61
2023/07/11 12:42:13;;;;;;;7.03;6.00;;;33.70;93.20;;;;;;5009122;28;20199;-62
2023/07/11 12:44:40;;;;;;;6.75;6.18;;;33.90;92.60;;;;;;5003922;28;20265;-62
2023/07/11 12:47:14;;;;;;;7.03;5.85;;;33.90;92.70;;;;;;5003111;28;20602;-62